. : TABULKA : . . : GRAFY : . . : METAR : .


.: METAR informace z letišť v ČR :.

LKPR - Prague/Ruzyne, Czech Republic
Distance from station: WNW 188km
Updated: Tue, 22-Jan-2019 8:00pm CET
Mist, Partly cloudy
Mist, Partly cloudy
 Wind from ESE
Wind: ESE 6 km/h
Temperature: -7°C
Dew Point: -8°C
Humidity: 93%
Barometer: 1007 hPa
Summary: Mist
Clouds: Partly Cloudy
Visibility: 5 km
2019/01/22 19:00 LKPR 221900Z 11003KT 5000 BR NSC M07/M08 Q1007 NOSIG
LKTB - Brno/Turany, Czech Republic
Distance from station: S 28km
Updated: Tue, 22-Jan-2019 8:00pm CET
Mist, Overcast
Mist, Overcast
 Wind from ENE
Wind: ENE 15 km/h
Temperature: -7°C
Wind Chill: -13°C
Dew Point: -7°C
Humidity: 100%
Barometer: 1009 hPa
Summary: Mist
Clouds: Overcast
Visibility: 1 km
Cloud details: Overcast 61 m
2019/01/22 19:00 LKTB 221900Z 06008KT 1200 R27/P2000N BR OVC002 M07/M07 Q1009 NOSIG
 
LKMT - Ostrava/Mosnov, Czech Republic
Distance from station: ENE 112km
Updated: Tue, 22-Jan-2019 8:00pm CET
Mist, Partly cloudy
Mist, Partly cloudy
 Wind from WSW
Wind: WSW 4 km/h
Temperature: -8°C
Dew Point: -9°C
Humidity: 93%
Barometer: 1009 hPa
Summary: Mist
Clouds: Partly Cloudy
Visibility: 2 km
2019/01/22 19:00 LKMT 221900Z 24002KT 2000 BR NSC M08/M09 Q1009 R04/450195 TEMPO 1200 BR
LKPD - Pardubice, Czech Republic
Distance from station: NW 96km
Updated: Tue, 22-Jan-2019 8:00pm CET
Partly Cloudy
Partly Cloudy
 Wind from calm
Wind: Calm
Temperature: -7°C
Dew Point: -9°C
Humidity: 86%
Barometer: 1008 hPa
Clouds: Partly Cloudy
Visibility: 7 km
2019/01/22 19:00 LKPD 221900Z 00000KT 7000 NSC M07/M09 Q1008 NOSIG
 
LKNA - Namest, Czech Republic
Distance from station: WSW 45km
Updated: Tue, 22-Jan-2019 8:00pm CET
Freezing fog, Overcast
Freezing fog, Overcast
 Wind from SE
Wind: SE 7 km/h
Temperature: -8°C
Wind Chill: -12°C
Dew Point: -9°C
Humidity: 93%
Barometer: 1007 hPa
Summary: Freezing Fog
Clouds: Overcast
Visibility: 0 km
Cloud details: Overcast 30 m
2019/01/22 19:00 LKNA 221900Z 13004KT 090V160 0100 R31/0250N FZFG VV001 M08/M09 Q1007 NOSIG
LKKU - Kunovice, Czech Republic
Distance from station: ESE 70km
Updated: Tue, 22-Jan-2019 4:02pm CET
NOT Current
Mist, Partly cloudy
Mist, Partly cloudy
 Wind from N
Wind: N 11 km/h
Temperature: -4°C
Wind Chill: -8°C
Dew Point: -6°C
Humidity: 86%
Barometer: 1011 hPa
Summary: Mist
Clouds: Partly Cloudy
Visibility: 3 km
2019/01/22 15:02 LKKU 221502Z 01006KT 3000 BR NSC M04/M06 Q1011
 
LKCV - Caslav, Czech Republic
Distance from station: NW 109km
Updated: Tue, 22-Jan-2019 8:00pm CET
Partly Cloudy
Partly Cloudy
 Wind from SSE
Wind: SSE 11 km/h
Temperature: -7°C
Wind Chill: -12°C
Dew Point: -9°C
Humidity: 86%
Barometer: 1008 hPa
Clouds: Partly Cloudy
Visibility: 8 km
2019/01/22 19:00 LKCV 221900Z 15006KT 8000 NSC M07/M09 Q1008 NOSIG
LKKB - Kbely, Czech Republic
Distance from station: WNW 171km
Updated: Tue, 22-Jan-2019 8:00pm CET
Partly Cloudy
Partly Cloudy
 Wind from E
Wind: E 9 km/h
Temperature: -5°C
Wind Chill: -9°C
Dew Point: -8°C
Humidity: 80%
Barometer: 1007 hPa
Clouds: Partly Cloudy
Visibility: 6 km
2019/01/22 19:00 LKKB 221900Z 08005KT 6000 NSC M05/M08 Q1007 NOSIG
 
LKVO - Vodochody, Czech Republic
Distance from station: WNW 185km
Updated: Tue, 22-Jan-2019 4:00pm CET
NOT Current
Mist, Mostly cloudy
Mist, Mostly cloudy
 Wind from E
Wind: E 7 km/h
Temperature: -4°C
Wind Chill: -7°C
Dew Point: -6°C
Humidity: 86%
Barometer: 1010 hPa
Summary: Mist
Clouds: Mostly Cloudy
Visibility: 4 km
Cloud details: Mostly Cloudy 701 m
2019/01/22 15:00 LKVO 221500Z 08004KT 4000 BR BKN023 M04/M06 Q1010

Metar display script from Saratoga-Weather.org